ADDS METAR Data INFO
IDs: Format: Raw Decoded Include TAF

Data at: 2015 UTC 18 Jul 2018

KEDU 181955Z AUTO 01003KT 9SM FEW100 34/13 A2992 RMK AO1
KEDU 181935Z AUTO 36004KT 9SM CLR 33/14 A2993 RMK AO1
KEDU 181915Z AUTO 00000KT 9SM CLR 32/14 A2994 RMK AO1
KEDU 181855Z AUTO 02004KT 10SM CLR 30/14 A2995 RMK AO1
KEDU 181835Z AUTO 36003KT 9SM CLR 30/14 A2995 RMK AO1
KEDU 181815Z AUTO 08003KT 10SM CLR 29/14 A2996 RMK AO1
KEDU 181755Z AUTO 04003KT 8SM CLR 28/15 A2996 RMK AO1
KEDU 181735Z AUTO 02003KT 10SM CLR 27/15 A2995 RMK AO1
KEDU 181715Z AUTO 01004KT 10SM CLR 25/15 A2996 RMK AO1
KEDU 181655Z AUTO 00000KT 9SM CLR 24/15 A2996 RMK AO1
KEDU 181635Z AUTO 00000KT 9SM CLR 23/15 A2996 RMK AO1
KEDU 181615Z AUTO 03003KT 10SM CLR 22/15 A2996 RMK AO1
KEDU 181555Z AUTO 00000KT 10SM CLR 21/14 A2995 RMK AO1
KEDU 181535Z AUTO 00000KT 9SM CLR 20/14 A2995 RMK AO1
KEDU 181515Z AUTO 33004KT 10SM CLR 19/14 A2994 RMK AO1
KEDU 181455Z AUTO 32004KT 9SM CLR 19/14 A2994 RMK AO1
KEDU 181435Z AUTO 31004KT 9SM CLR 18/14 A2994 RMK AO1
KEDU 181415Z AUTO 30003KT 8SM CLR 17/13 A2993 RMK AO1
KEDU 181355Z AUTO 00000KT 10SM CLR 16/13 A2993 RMK AO1
KEDU 181335Z AUTO 00000KT 10SM CLR 15/13 A2993 RMK AO1
KEDU 181315Z AUTO 10SM CLR 15/13 A2992 RMK AO1
KEDU 181255Z AUTO 00000KT 10SM CLR 15/13 A2992 RMK AO1
KEDU 181235Z AUTO 00000KT 10SM CLR 15/13 A2991 RMK AO1
KEDU 181215Z AUTO 00000KT 10SM CLR 15/13 A2990 RMK AO1
KEDU 181155Z AUTO 00000KT 10SM CLR 15/13 A2991 RMK AO1
KEDU 181135Z AUTO 00000KT 10SM CLR 15/13 A2990 RMK AO1
KEDU 181115Z AUTO 00000KT 10SM CLR 15/13 A2990 RMK AO1
KEDU 181055Z AUTO 16003KT 10SM CLR 15/13 A2990 RMK AO1
KEDU 181035Z AUTO 15004KT 10SM CLR 15/13 A2990 RMK AO1
KEDU 181015Z AUTO 14004KT 10SM CLR 16/13 A2990 RMK AO1
KEDU 180955Z AUTO 14005KT 10SM CLR 16/13 A2990 RMK AO1
KEDU 180935Z AUTO 13005KT 10SM CLR 16/13 A2990 RMK AO1
KEDU 180915Z AUTO 13006KT 10SM CLR 17/13 A2990 RMK AO1
KEDU 180855Z AUTO 12003KT 10SM CLR 17/14 A2989 RMK AO1
KEDU 180835Z AUTO 14005KT 10SM CLR 17/14 A2989 RMK AO1
KEDU 180815Z AUTO 13005KT 10SM CLR 18/14 A2989 RMK AO1
KEDU 180755Z AUTO 14004KT 10SM CLR 18/14 A2988 RMK AO1
KEDU 180735Z AUTO 12003KT 10SM CLR 19/14 A2988 RMK AO1
KEDU 180715Z AUTO 18003KT 10SM CLR 19/14 A2988 RMK AO1
KEDU 180655Z AUTO 18005KT 10SM CLR 19/14 A2988 RMK AO1
KEDU 180635Z AUTO 18004KT 10SM CLR 20/14 A2987 RMK AO1
KEDU 180615Z AUTO 18004KT 10SM CLR 20/14 A2987 RMK AO1
KEDU 180555Z AUTO 18005KT 10SM CLR 21/14 A2987 RMK AO1
KEDU 180535Z AUTO 17005KT 10SM CLR 22/14 A2987 RMK AO1
KEDU 180515Z AUTO 17004KT 10SM CLR 22/14 A2987 RMK AO1
KEDU 180455Z AUTO 18005KT 10SM CLR 23/14 A2987 RMK AO1
KEDU 180435Z AUTO 18005KT 10SM CLR 24/14 A2987 RMK AO1
KEDU 180415Z AUTO 19005KT 10SM CLR 24/15 A2986 RMK AO1
KEDU 180355Z AUTO 18005KT 10SM CLR 26/15 A2986 RMK AO1
KEDU 180335Z AUTO 18003KT 10SM CLR 27/17 A2985 RMK AO1
KEDU 180315Z AUTO 00000KT 10SM CLR 30/17 A2985 RMK AO1
KEDU 180255Z AUTO 20005KT 10SM CLR 31/17 A2985 RMK AO1
KEDU 180235Z AUTO 18006KT 10SM CLR 32/17 A2984 RMK AO1
KEDU 180215Z AUTO 17007KT 10SM CLR 34/17 A2984 RMK AO1
KEDU 180155Z AUTO 17006KT 10SM CLR 35/15 A2984 RMK AO1
KEDU 180135Z AUTO 17006KT 10SM CLR 35/15 A2984 RMK AO1
KEDU 180115Z AUTO 18006KT 8SM CLR 36/13 A2985 RMK AO1
KEDU 180055Z AUTO 18006KT 10SM CLR 36/12 A2985 RMK AO1
KEDU 180035Z AUTO 18008KT 10SM CLR 37/10 A2986 RMK AO1
KEDU 180015Z AUTO 18007KT 10SM CLR 37/10 A2986 RMK AO1
KEDU 172355Z AUTO 18007KT 10SM CLR 37/09 A2987 RMK AO1
KEDU 172335Z AUTO 17006KT 10SM CLR 37/09 A2988 RMK AO1
KEDU 172315Z AUTO 17009KT 10SM CLR 36/10 A2988 RMK AO1
KEDU 172255Z AUTO 17008KT 10SM CLR 36/12 A2989 RMK AO1
KEDU 172235Z AUTO 17006KT 10SM CLR 35/13 A2990 RMK AO1
KEDU 172215Z AUTO 14006KT 9SM CLR 35/15 A2990 RMK AO1
KEDU 172155Z AUTO 20003KT 9SM CLR 35/14 A2991 RMK AO1
KEDU 172135Z AUTO 18006KT 7SM CLR 34/15 A2991 RMK AO1
KEDU 172115Z AUTO 20005KT 9SM CLR 34/15 A2992 RMK AO1
KEDU 172055Z AUTO 19005KT 10SM CLR 33/15 A2992 RMK AO1
KEDU 172035Z AUTO 17003KT 8SM CLR 33/14 A2993 RMK AO1
KEDU 172015Z AUTO 22005KT 10SM CLR 32/14 A2993 RMK AO1
KEDU 171955Z AUTO 18004KT 9SM CLR 30/15 A2994 RMK AO1
KEDU 171935Z AUTO 20004KT 10SM CLR 30/14 A2994 RMK AO1
KEDU 171915Z AUTO 25003KT 9SM CLR 29/14 A2995 RMK AO1
KEDU 171855Z AUTO 22004KT 10SM CLR 28/14 A2996 RMK AO1
KEDU 171835Z AUTO 17004KT 10SM CLR 27/15 A2996 RMK AO1
KEDU 171815Z AUTO 21003KT 9SM CLR 26/14 A2996 RMK AO1
KEDU 171755Z AUTO 00000KT 10SM CLR 25/13 A2996 RMK AO1
KEDU 171735Z AUTO 00000KT 10SM CLR 24/13 A2996 RMK AO1
KEDU 171715Z AUTO 00000KT 10SM CLR 23/13 A2996 RMK AO1
KEDU 171655Z AUTO 04003KT 10SM CLR 22/13 A2996 RMK AO1
KEDU 171635Z AUTO 32003KT 10SM CLR 21/13 A2997 RMK AO1
KEDU 171615Z AUTO 00000KT 10SM CLR 20/13 A2997 RMK AO1
KEDU 171555Z AUTO 36003KT 10SM CLR 19/13 A2997 RMK AO1
KEDU 171535Z AUTO 34003KT 10SM CLR 19/13 A2996 RMK AO1
KEDU 171515Z AUTO 28003KT 9SM CLR 18/12 A2996 RMK AO1
KEDU 171455Z AUTO 28003KT 10SM CLR 17/12 A2996 RMK AO1
KEDU 171435Z AUTO 26003KT 10SM CLR 16/12 A2995 RMK AO1
KEDU 171415Z AUTO 00000KT 10SM CLR 15/12 A2994 RMK AO1
KEDU 171355Z AUTO 00000KT 10SM CLR 14/12 A2994 RMK AO1
KEDU 171335Z AUTO 00000KT 10SM CLR 13/12 A2993 RMK AO1
KEDU 171315Z AUTO 10003KT 10SM CLR 14/12 A2992 RMK AO1
KEDU 171255Z AUTO 10003KT 10SM CLR 14/12 A2992 RMK AO1
KEDU 171235Z AUTO 06003KT 10SM CLR 14/11 A2991 RMK AO1
KEDU 171215Z AUTO 00000KT 10SM CLR 14/12 A2991 RMK AO1
KEDU 171155Z AUTO 00000KT 10SM CLR 14/12 A2991 RMK AO1
KEDU 171135Z AUTO 00000KT 10SM CLR 14/12 A2991 RMK AO1
KEDU 171115Z AUTO 15003KT 10SM CLR 14/12 A2990 RMK AO1
KEDU 171055Z AUTO 16003KT 10SM CLR 14/12 A2991 RMK AO1
KEDU 171035Z AUTO 16004KT 10SM CLR 15/12 A2990 RMK AO1
KEDU 171015Z AUTO 16005KT 10SM CLR 15/12 A2990 RMK AO1
KEDU 170955Z AUTO 15005KT 10SM CLR 15/12 A2990 RMK AO1
KEDU 170935Z AUTO 14005KT 10SM CLR 15/12 A2989 RMK AO1
KEDU 170915Z AUTO 14004KT 10SM CLR 15/12 A2989 RMK AO1
KEDU 170855Z AUTO 14004KT 10SM CLR 16/12 A2989 RMK AO1
KEDU 170835Z AUTO 13003KT 10SM CLR 17/12 A2989 RMK AO1